sensor_id;sensor_type;location;lat;lon;timestamp;temperature;humidity
81202;DHT22;71068;47.662;-2.750;2023-09-18T00:01:01;22.50;77.10
81202;DHT22;71068;47.662;-2.750;2023-09-18T00:03:27;22.40;77.70
81202;DHT22;71068;47.662;-2.750;2023-09-18T00:05:54;22.40;77.40
81202;DHT22;71068;47.662;-2.750;2023-09-18T00:08:20;22.40;77.80
81202;DHT22;71068;47.662;-2.750;2023-09-18T00:10:51;22.20;77.80
81202;DHT22;71068;47.662;-2.750;2023-09-18T00:13:20;22.10;78.10
81202;DHT22;71068;47.662;-2.750;2023-09-18T00:15:56;22.30;77.80
81202;DHT22;71068;47.662;-2.750;2023-09-18T00:18:25;22.20;77.70
81202;DHT22;71068;47.662;-2.750;2023-09-18T00:20:53;22.20;77.70
81202;DHT22;71068;47.662;-2.750;2023-09-18T00:23:19;22.20;77.60
81202;DHT22;71068;47.662;-2.750;2023-09-18T00:25:47;22.30;77.40
81202;DHT22;71068;47.662;-2.750;2023-09-18T00:28:15;22.20;77.50
81202;DHT22;71068;47.662;-2.750;2023-09-18T00:30:49;22.10;77.50
81202;DHT22;71068;47.662;-2.750;2023-09-18T00:33:18;22.00;77.60
81202;DHT22;71068;47.662;-2.750;2023-09-18T00:35:51;22.00;79.60
81202;DHT22;71068;47.662;-2.750;2023-09-18T00:38:18;21.90;81.20
81202;DHT22;71068;47.662;-2.750;2023-09-18T00:40:45;21.70;80.90
81202;DHT22;71068;47.662;-2.750;2023-09-18T00:43:11;21.70;80.50
81202;DHT22;71068;47.662;-2.750;2023-09-18T00:45:44;21.70;79.50
81202;DHT22;71068;47.662;-2.750;2023-09-18T00:48:11;21.70;79.20
81202;DHT22;71068;47.662;-2.750;2023-09-18T00:50:44;21.70;78.80
81202;DHT22;71068;47.662;-2.750;2023-09-18T00:53:14;21.70;78.90
81202;DHT22;71068;47.662;-2.750;2023-09-18T00:55:44;21.60;80.70
81202;DHT22;71068;47.662;-2.750;2023-09-18T00:58:16;21.70;79.40
81202;DHT22;71068;47.662;-2.750;2023-09-18T01:00:44;21.60;79.60
81202;DHT22;71068;47.662;-2.750;2023-09-18T01:03:12;21.60;79.90
81202;DHT22;71068;47.662;-2.750;2023-09-18T01:05:38;21.60;80.30
81202;DHT22;71068;47.662;-2.750;2023-09-18T01:08:07;21.50;80.80
81202;DHT22;71068;47.662;-2.750;2023-09-18T01:10:47;21.50;80.90
81202;DHT22;71068;47.662;-2.750;2023-09-18T01:13:55;21.50;79.70
81202;DHT22;71068;47.662;-2.750;2023-09-18T01:16:35;21.50;79.50
81202;DHT22;71068;47.662;-2.750;2023-09-18T01:19:12;21.50;79.30
81202;DHT22;71068;47.662;-2.750;2023-09-18T01:21:40;21.60;79.00
81202;DHT22;71068;47.662;-2.750;2023-09-18T01:24:07;21.60;79.00
81202;DHT22;71068;47.662;-2.750;2023-09-18T01:26:34;21.60;79.00
81202;DHT22;71068;47.662;-2.750;2023-09-18T01:29:01;21.60;78.90
81202;DHT22;71068;47.662;-2.750;2023-09-18T01:31:28;21.60;78.50
81202;DHT22;71068;47.662;-2.750;2023-09-18T01:33:55;21.50;78.90
81202;DHT22;71068;47.662;-2.750;2023-09-18T01:36:22;21.50;78.70
81202;DHT22;71068;47.662;-2.750;2023-09-18T01:38:50;21.50;78.90
81202;DHT22;71068;47.662;-2.750;2023-09-18T01:41:17;21.50;78.90
81202;DHT22;71068;47.662;-2.750;2023-09-18T01:43:50;21.40;79.40
81202;DHT22;71068;47.662;-2.750;2023-09-18T01:46:16;21.40;79.90
81202;DHT22;71068;47.662;-2.750;2023-09-18T01:48:46;21.40;79.40
81202;DHT22;71068;47.662;-2.750;2023-09-18T01:51:17;21.40;79.10
81202;DHT22;71068;47.662;-2.750;2023-09-18T01:53:43;21.40;78.80
81202;DHT22;71068;47.662;-2.750;2023-09-18T01:56:10;21.50;78.70
81202;DHT22;71068;47.662;-2.750;2023-09-18T01:58:36;21.40;78.60
81202;DHT22;71068;47.662;-2.750;2023-09-18T02:01:02;21.50;79.00
81202;DHT22;71068;47.662;-2.750;2023-09-18T02:03:32;21.50;78.40
81202;DHT22;71068;47.662;-2.750;2023-09-18T02:05:58;21.50;78.50
81202;DHT22;71068;47.662;-2.750;2023-09-18T02:08:23;21.40;78.80
81202;DHT22;71068;47.662;-2.750;2023-09-18T02:10:50;21.50;78.60
81202;DHT22;71068;47.662;-2.750;2023-09-18T02:13:18;21.40;79.30
81202;DHT22;71068;47.662;-2.750;2023-09-18T02:15:46;21.40;78.80
81202;DHT22;71068;47.662;-2.750;2023-09-18T02:18:13;21.30;78.90
81202;DHT22;71068;47.662;-2.750;2023-09-18T02:20:41;21.30;79.00
81202;DHT22;71068;47.662;-2.750;2023-09-18T02:23:07;21.30;78.90
81202;DHT22;71068;47.662;-2.750;2023-09-18T02:25:34;21.20;78.90
81202;DHT22;71068;47.662;-2.750;2023-09-18T02:27:59;21.20;79.20
81202;DHT22;71068;47.662;-2.750;2023-09-18T02:30:25;21.20;79.80
81202;DHT22;71068;47.662;-2.750;2023-09-18T02:32:51;21.20;80.00
81202;DHT22;71068;47.662;-2.750;2023-09-18T02:35:19;21.20;79.70
81202;DHT22;71068;47.662;-2.750;2023-09-18T02:37:45;21.20;80.10
81202;DHT22;71068;47.662;-2.750;2023-09-18T02:40:11;21.20;79.50
81202;DHT22;71068;47.662;-2.750;2023-09-18T02:42:40;21.20;79.10
81202;DHT22;71068;47.662;-2.750;2023-09-18T02:45:06;21.20;78.80
81202;DHT22;71068;47.662;-2.750;2023-09-18T02:47:36;21.20;78.70
81202;DHT22;71068;47.662;-2.750;2023-09-18T02:50:08;21.30;78.60
81202;DHT22;71068;47.662;-2.750;2023-09-18T02:52:36;21.30;78.40
81202;DHT22;71068;47.662;-2.750;2023-09-18T02:55:02;21.30;78.20
81202;DHT22;71068;47.662;-2.750;2023-09-18T02:57:29;21.30;78.10
81202;DHT22;71068;47.662;-2.750;2023-09-18T02:59:54;21.30;78.60
81202;DHT22;71068;47.662;-2.750;2023-09-18T03:02:21;21.30;78.30
81202;DHT22;71068;47.662;-2.750;2023-09-18T03:04:49;21.30;78.10
81202;DHT22;71068;47.662;-2.750;2023-09-18T03:07:14;21.20;78.20
81202;DHT22;71068;47.662;-2.750;2023-09-18T03:09:41;21.20;78.10
81202;DHT22;71068;47.662;-2.750;2023-09-18T03:12:07;21.30;78.30
81202;DHT22;71068;47.662;-2.750;2023-09-18T03:14:34;21.20;78.20
81202;DHT22;71068;47.662;-2.750;2023-09-18T03:17:00;21.20;78.20
81202;DHT22;71068;47.662;-2.750;2023-09-18T03:19:26;21.30;78.20
81202;DHT22;71068;47.662;-2.750;2023-09-18T03:21:59;21.20;78.10
81202;DHT22;71068;47.662;-2.750;2023-09-18T03:24:25;21.20;78.00
81202;DHT22;71068;47.662;-2.750;2023-09-18T03:26:51;21.30;78.10
81202;DHT22;71068;47.662;-2.750;2023-09-18T03:29:17;21.20;78.20
81202;DHT22;71068;47.662;-2.750;2023-09-18T03:31:43;21.30;78.10
81202;DHT22;71068;47.662;-2.750;2023-09-18T03:34:09;21.20;78.00
81202;DHT22;71068;47.662;-2.750;2023-09-18T03:36:36;21.10;78.00
81202;DHT22;71068;47.662;-2.750;2023-09-18T03:39:04;21.30;78.20
81202;DHT22;71068;47.662;-2.750;2023-09-18T03:41:31;21.20;78.10
81202;DHT22;71068;47.662;-2.750;2023-09-18T03:44:00;21.20;78.30
81202;DHT22;71068;47.662;-2.750;2023-09-18T03:46:26;21.20;78.60
81202;DHT22;71068;47.662;-2.750;2023-09-18T03:48:52;21.30;78.10
81202;DHT22;71068;47.662;-2.750;2023-09-18T03:51:19;21.30;78.10
81202;DHT22;71068;47.662;-2.750;2023-09-18T03:53:47;21.30;78.00
81202;DHT22;71068;47.662;-2.750;2023-09-18T03:56:15;21.20;78.80
81202;DHT22;71068;47.662;-2.750;2023-09-18T03:58:42;21.30;78.10
81202;DHT22;71068;47.662;-2.750;2023-09-18T04:01:11;21.40;78.20
81202;DHT22;71068;47.662;-2.750;2023-09-18T04:03:37;21.30;78.40
81202;DHT22;71068;47.662;-2.750;2023-09-18T04:06:03;21.30;78.60
81202;DHT22;71068;47.662;-2.750;2023-09-18T04:08:29;21.40;79.00
81202;DHT22;71068;47.662;-2.750;2023-09-18T04:10:55;21.40;78.20
81202;DHT22;71068;47.662;-2.750;2023-09-18T04:13:23;21.30;78.30
81202;DHT22;71068;47.662;-2.750;2023-09-18T04:15:57;21.30;78.10
81202;DHT22;71068;47.662;-2.750;2023-09-18T04:18:23;21.40;78.10
81202;DHT22;71068;47.662;-2.750;2023-09-18T04:20:49;21.40;78.10
81202;DHT22;71068;47.662;-2.750;2023-09-18T04:25:50;21.30;77.90
81202;DHT22;71068;47.662;-2.750;2023-09-18T04:28:18;21.40;78.00
81202;DHT22;71068;47.662;-2.750;2023-09-18T04:30:45;21.40;78.00
81202;DHT22;71068;47.662;-2.750;2023-09-18T04:33:12;21.40;78.40
81202;DHT22;71068;47.662;-2.750;2023-09-18T04:35:43;21.30;78.40
81202;DHT22;71068;47.662;-2.750;2023-09-18T04:38:10;21.30;78.40
81202;DHT22;71068;47.662;-2.750;2023-09-18T04:40:36;21.30;78.10
81202;DHT22;71068;47.662;-2.750;2023-09-18T04:43:05;21.30;78.00
81202;DHT22;71068;47.662;-2.750;2023-09-18T04:45:32;21.20;78.10
81202;DHT22;71068;47.662;-2.750;2023-09-18T04:47:59;21.20;78.60
81202;DHT22;71068;47.662;-2.750;2023-09-18T04:50:27;21.20;78.30
81202;DHT22;71068;47.662;-2.750;2023-09-18T04:52:53;21.20;78.30
81202;DHT22;71068;47.662;-2.750;2023-09-18T04:55:21;21.00;79.80
81202;DHT22;71068;47.662;-2.750;2023-09-18T04:57:48;20.90;79.60
81202;DHT22;71068;47.662;-2.750;2023-09-18T05:00:15;21.00;79.00
81202;DHT22;71068;47.662;-2.750;2023-09-18T05:02:42;21.00;78.90
81202;DHT22;71068;47.662;-2.750;2023-09-18T05:05:09;21.00;78.90
81202;DHT22;71068;47.662;-2.750;2023-09-18T05:07:37;21.00;79.20
81202;DHT22;71068;47.662;-2.750;2023-09-18T05:10:04;21.00;78.90
81202;DHT22;71068;47.662;-2.750;2023-09-18T05:12:30;21.00;78.80
81202;DHT22;71068;47.662;-2.750;2023-09-18T05:14:56;21.00;78.80
81202;DHT22;71068;47.662;-2.750;2023-09-18T05:17:42;21.00;78.70
81202;DHT22;71068;47.662;-2.750;2023-09-18T05:20:12;20.90;78.60
81202;DHT22;71068;47.662;-2.750;2023-09-18T05:22:41;21.00;78.70
81202;DHT22;71068;47.662;-2.750;2023-09-18T05:25:09;20.90;78.60
81202;DHT22;71068;47.662;-2.750;2023-09-18T05:27:36;21.00;79.00
81202;DHT22;71068;47.662;-2.750;2023-09-18T05:30:11;21.10;79.10
81202;DHT22;71068;47.662;-2.750;2023-09-18T05:32:42;21.00;78.90
81202;DHT22;71068;47.662;-2.750;2023-09-18T05:35:09;21.00;78.80
81202;DHT22;71068;47.662;-2.750;2023-09-18T05:37:39;20.90;79.40
81202;DHT22;71068;47.662;-2.750;2023-09-18T05:40:11;21.00;78.90
81202;DHT22;71068;47.662;-2.750;2023-09-18T05:42:42;20.90;79.10
81202;DHT22;71068;47.662;-2.750;2023-09-18T05:45:10;21.00;78.80
81202;DHT22;71068;47.662;-2.750;2023-09-18T05:47:41;21.00;79.10
81202;DHT22;71068;47.662;-2.750;2023-09-18T05:50:11;21.00;79.10
81202;DHT22;71068;47.662;-2.750;2023-09-18T05:52:44;21.00;78.90
81202;DHT22;71068;47.662;-2.750;2023-09-18T05:55:14;21.10;78.70
81202;DHT22;71068;47.662;-2.750;2023-09-18T05:57:42;21.10;78.70
81202;DHT22;71068;47.662;-2.750;2023-09-18T06:00:12;21.10;78.60
81202;DHT22;71068;47.662;-2.750;2023-09-18T06:02:47;21.20;78.60
81202;DHT22;71068;47.662;-2.750;2023-09-18T06:05:20;21.20;78.40
81202;DHT22;71068;47.662;-2.750;2023-09-18T06:07:51;21.10;78.40
81202;DHT22;71068;47.662;-2.750;2023-09-18T06:10:18;21.10;78.30
81202;DHT22;71068;47.662;-2.750;2023-09-18T06:12:44;21.20;78.70
81202;DHT22;71068;47.662;-2.750;2023-09-18T06:15:13;21.20;78.70
81202;DHT22;71068;47.662;-2.750;2023-09-18T06:17:40;21.10;79.10
81202;DHT22;71068;47.662;-2.750;2023-09-18T06:20:07;21.10;78.60
81202;DHT22;71068;47.662;-2.750;2023-09-18T06:22:37;21.20;78.70
81202;DHT22;71068;47.662;-2.750;2023-09-18T06:25:06;21.20;79.20
81202;DHT22;71068;47.662;-2.750;2023-09-18T06:27:42;21.20;78.60
81202;DHT22;71068;47.662;-2.750;2023-09-18T06:30:08;21.20;79.10
81202;DHT22;71068;47.662;-2.750;2023-09-18T06:32:34;21.20;79.00
81202;DHT22;71068;47.662;-2.750;2023-09-18T06:35:02;21.20;78.80
81202;DHT22;71068;47.662;-2.750;2023-09-18T06:37:29;21.20;78.80
81202;DHT22;71068;47.662;-2.750;2023-09-18T06:39:55;21.30;78.80
81202;DHT22;71068;47.662;-2.750;2023-09-18T06:42:26;21.30;79.00
81202;DHT22;71068;47.662;-2.750;2023-09-18T06:44:53;21.40;78.70
81202;DHT22;71068;47.662;-2.750;2023-09-18T06:47:23;21.40;78.30
81202;DHT22;71068;47.662;-2.750;2023-09-18T06:49:49;21.40;78.70
81202;DHT22;71068;47.662;-2.750;2023-09-18T06:52:17;21.40;78.40
81202;DHT22;71068;47.662;-2.750;2023-09-18T06:54:44;21.40;78.30
81202;DHT22;71068;47.662;-2.750;2023-09-18T06:57:10;21.40;78.10
81202;DHT22;71068;47.662;-2.750;2023-09-18T06:59:37;21.40;78.40
81202;DHT22;71068;47.662;-2.750;2023-09-18T07:02:03;21.50;78.30
81202;DHT22;71068;47.662;-2.750;2023-09-18T07:04:30;21.40;78.00
81202;DHT22;71068;47.662;-2.750;2023-09-18T07:06:56;21.40;78.30
81202;DHT22;71068;47.662;-2.750;2023-09-18T07:09:22;21.50;78.10
81202;DHT22;71068;47.662;-2.750;2023-09-18T07:11:53;21.40;78.00
81202;DHT22;71068;47.662;-2.750;2023-09-18T07:14:26;21.40;78.20
81202;DHT22;71068;47.662;-2.750;2023-09-18T07:16:53;21.40;78.20
81202;DHT22;71068;47.662;-2.750;2023-09-18T07:19:20;21.40;78.50
81202;DHT22;71068;47.662;-2.750;2023-09-18T07:21:47;21.40;78.10
81202;DHT22;71068;47.662;-2.750;2023-09-18T07:24:14;21.40;78.10
81202;DHT22;71068;47.662;-2.750;2023-09-18T07:26:45;21.50;77.90
81202;DHT22;71068;47.662;-2.750;2023-09-18T07:29:14;21.50;78.40
81202;DHT22;71068;47.662;-2.750;2023-09-18T07:31:46;21.50;77.90
81202;DHT22;71068;47.662;-2.750;2023-09-18T07:34:14;21.60;77.70
81202;DHT22;71068;47.662;-2.750;2023-09-18T07:36:44;21.60;77.50
81202;DHT22;71068;47.662;-2.750;2023-09-18T07:39:10;21.70;77.30
81202;DHT22;71068;47.662;-2.750;2023-09-18T07:41:37;21.80;77.00
81202;DHT22;71068;47.662;-2.750;2023-09-18T07:44:04;21.90;76.50
81202;DHT22;71068;47.662;-2.750;2023-09-18T07:46:30;22.00;76.00
81202;DHT22;71068;47.662;-2.750;2023-09-18T07:48:56;22.10;76.20
81202;DHT22;71068;47.662;-2.750;2023-09-18T07:51:24;22.10;75.70
81202;DHT22;71068;47.662;-2.750;2023-09-18T07:53:55;22.30;75.90
81202;DHT22;71068;47.662;-2.750;2023-09-18T07:56:25;22.40;75.00
81202;DHT22;71068;47.662;-2.750;2023-09-18T07:58:52;22.40;75.00
81202;DHT22;71068;47.662;-2.750;2023-09-18T08:01:20;22.50;74.80
81202;DHT22;71068;47.662;-2.750;2023-09-18T08:03:48;22.50;74.90
81202;DHT22;71068;47.662;-2.750;2023-09-18T08:06:16;22.70;74.30
81202;DHT22;71068;47.662;-2.750;2023-09-18T08:08:45;22.70;73.30
81202;DHT22;71068;47.662;-2.750;2023-09-18T08:11:16;22.70;73.50
81202;DHT22;71068;47.662;-2.750;2023-09-18T08:13:43;22.50;73.20
81202;DHT22;71068;47.662;-2.750;2023-09-18T08:16:09;22.30;73.90
81202;DHT22;71068;47.662;-2.750;2023-09-18T08:18:36;22.10;74.20
81202;DHT22;71068;47.662;-2.750;2023-09-18T08:21:07;22.00;74.80
81202;DHT22;71068;47.662;-2.750;2023-09-18T08:23:36;21.90;74.90
81202;DHT22;71068;47.662;-2.750;2023-09-18T08:26:02;22.00;74.90
81202;DHT22;71068;47.662;-2.750;2023-09-18T08:28:30;21.90;74.90
81202;DHT22;71068;47.662;-2.750;2023-09-18T08:30:56;21.90;74.50
81202;DHT22;71068;47.662;-2.750;2023-09-18T08:33:26;21.90;74.30
81202;DHT22;71068;47.662;-2.750;2023-09-18T08:35:54;22.00;73.80
81202;DHT22;71068;47.662;-2.750;2023-09-18T08:38:20;22.00;74.00
81202;DHT22;71068;47.662;-2.750;2023-09-18T08:40:47;21.90;73.00
81202;DHT22;71068;47.662;-2.750;2023-09-18T08:43:14;21.90;73.30
81202;DHT22;71068;47.662;-2.750;2023-09-18T08:45:54;21.80;72.00
81202;DHT22;71068;47.662;-2.750;2023-09-18T08:48:22;21.80;72.60
81202;DHT22;71068;47.662;-2.750;2023-09-18T08:50:49;21.80;72.80
81202;DHT22;71068;47.662;-2.750;2023-09-18T08:53:17;21.70;72.50
81202;DHT22;71068;47.662;-2.750;2023-09-18T08:55:43;21.80;72.60
81202;DHT22;71068;47.662;-2.750;2023-09-18T08:58:09;21.80;71.70
81202;DHT22;71068;47.662;-2.750;2023-09-18T09:00:37;21.90;72.40
81202;DHT22;71068;47.662;-2.750;2023-09-18T09:03:04;22.00;72.00
81202;DHT22;71068;47.662;-2.750;2023-09-18T09:05:33;22.00;71.90
81202;DHT22;71068;47.662;-2.750;2023-09-18T09:08:00;22.10;71.80
81202;DHT22;71068;47.662;-2.750;2023-09-18T09:10:27;22.10;71.20
81202;DHT22;71068;47.662;-2.750;2023-09-18T09:12:57;22.10;71.30
81202;DHT22;71068;47.662;-2.750;2023-09-18T09:15:27;22.00;71.40
81202;DHT22;71068;47.662;-2.750;2023-09-18T09:18:07;22.20;71.60
81202;DHT22;71068;47.662;-2.750;2023-09-18T09:20:35;22.20;71.30
81202;DHT22;71068;47.662;-2.750;2023-09-18T09:23:03;22.30;70.90
81202;DHT22;71068;47.662;-2.750;2023-09-18T09:25:31;22.40;70.30
81202;DHT22;71068;47.662;-2.750;2023-09-18T09:28:04;22.50;70.40
81202;DHT22;71068;47.662;-2.750;2023-09-18T09:30:33;22.60;70.40
81202;DHT22;71068;47.662;-2.750;2023-09-18T09:33:06;22.70;69.40
81202;DHT22;71068;47.662;-2.750;2023-09-18T09:35:35;22.90;69.30
81202;DHT22;71068;47.662;-2.750;2023-09-18T09:38:12;22.90;69.30
81202;DHT22;71068;47.662;-2.750;2023-09-18T09:40:43;23.00;69.00
81202;DHT22;71068;47.662;-2.750;2023-09-18T09:43:12;23.10;68.50
81202;DHT22;71068;47.662;-2.750;2023-09-18T09:45:40;23.00;67.80
81202;DHT22;71068;47.662;-2.750;2023-09-18T09:48:07;23.10;68.70
81202;DHT22;71068;47.662;-2.750;2023-09-18T09:50:47;23.20;68.70
81202;DHT22;71068;47.662;-2.750;2023-09-18T09:53:15;23.20;68.50
81202;DHT22;71068;47.662;-2.750;2023-09-18T09:55:41;23.30;68.70
81202;DHT22;71068;47.662;-2.750;2023-09-18T09:58:09;23.10;68.50
81202;DHT22;71068;47.662;-2.750;2023-09-18T10:00:43;23.00;68.50
81202;DHT22;71068;47.662;-2.750;2023-09-18T10:03:14;23.00;68.60
81202;DHT22;71068;47.662;-2.750;2023-09-18T10:05:45;22.90;69.00
81202;DHT22;71068;47.662;-2.750;2023-09-18T10:08:17;22.90;68.70
81202;DHT22;71068;47.662;-2.750;2023-09-18T10:10:52;22.90;69.40
81202;DHT22;71068;47.662;-2.750;2023-09-18T10:13:35;23.10;68.80
81202;DHT22;71068;47.662;-2.750;2023-09-18T10:16:08;23.60;68.20
81202;DHT22;71068;47.662;-2.750;2023-09-18T10:18:55;24.00;66.90
81202;DHT22;71068;47.662;-2.750;2023-09-18T10:21:41;24.20;66.00
81202;DHT22;71068;47.662;-2.750;2023-09-18T10:24:27;24.20;65.30
81202;DHT22;71068;47.662;-2.750;2023-09-18T10:26:59;24.20;66.60
81202;DHT22;71068;47.662;-2.750;2023-09-18T10:29:26;24.10;64.60
81202;DHT22;71068;47.662;-2.750;2023-09-18T10:31:55;24.00;66.60
81202;DHT22;71068;47.662;-2.750;2023-09-18T10:34:23;23.90;66.30
81202;DHT22;71068;47.662;-2.750;2023-09-18T10:36:56;23.70;65.80
81202;DHT22;71068;47.662;-2.750;2023-09-18T10:39:26;23.70;65.60
81202;DHT22;71068;47.662;-2.750;2023-09-18T10:41:56;23.70;66.10
81202;DHT22;71068;47.662;-2.750;2023-09-18T10:44:23;23.80;66.00
81202;DHT22;71068;47.662;-2.750;2023-09-18T10:46:51;23.90;66.10
81202;DHT22;71068;47.662;-2.750;2023-09-18T10:49:19;23.90;64.80
81202;DHT22;71068;47.662;-2.750;2023-09-18T10:51:47;24.10;65.00
81202;DHT22;71068;47.662;-2.750;2023-09-18T10:54:20;24.00;64.20
81202;DHT22;71068;47.662;-2.750;2023-09-18T10:56:47;24.00;64.60
81202;DHT22;71068;47.662;-2.750;2023-09-18T10:59:14;24.10;65.10
81202;DHT22;71068;47.662;-2.750;2023-09-18T11:01:44;24.10;65.30
81202;DHT22;71068;47.662;-2.750;2023-09-18T11:04:13;24.10;64.50
81202;DHT22;71068;47.662;-2.750;2023-09-18T11:09:25;24.40;63.80
81202;DHT22;71068;47.662;-2.750;2023-09-18T11:11:57;24.60;63.20
81202;DHT22;71068;47.662;-2.750;2023-09-18T11:20:06;24.60;59.50
81202;DHT22;71068;47.662;-2.750;2023-09-18T11:22:49;24.60;59.40
81202;DHT22;71068;47.662;-2.750;2023-09-18T11:25:41;24.40;61.20
81202;DHT22;71068;47.662;-2.750;2023-09-18T11:28:13;24.30;61.70
81202;DHT22;71068;47.662;-2.750;2023-09-18T11:30:49;23.90;60.80
81202;DHT22;71068;47.662;-2.750;2023-09-18T11:33:36;23.70;62.40
81202;DHT22;71068;47.662;-2.750;2023-09-18T11:36:06;23.80;63.90
81202;DHT22;71068;47.662;-2.750;2023-09-18T11:38:34;24.30;64.00
81202;DHT22;71068;47.662;-2.750;2023-09-18T11:41:32;25.10;61.60
81202;DHT22;71068;47.662;-2.750;2023-09-18T11:46:49;25.80;58.40
81202;DHT22;71068;47.662;-2.750;2023-09-18T11:49:22;25.90;54.50
81202;DHT22;71068;47.662;-2.750;2023-09-18T11:51:52;26.50;58.20
81202;DHT22;71068;47.662;-2.750;2023-09-18T11:54:18;26.70;57.20
81202;DHT22;71068;47.662;-2.750;2023-09-18T11:56:45;26.90;57.00
81202;DHT22;71068;47.662;-2.750;2023-09-18T11:59:12;27.10;55.80
81202;DHT22;71068;47.662;-2.750;2023-09-18T12:01:38;27.10;50.90
81202;DHT22;71068;47.662;-2.750;2023-09-18T12:04:12;27.00;53.70
81202;DHT22;71068;47.662;-2.750;2023-09-18T12:06:40;26.60;50.30
81202;DHT22;71068;47.662;-2.750;2023-09-18T12:09:14;26.70;52.50
81202;DHT22;71068;47.662;-2.750;2023-09-18T12:11:41;27.00;51.70
81202;DHT22;71068;47.662;-2.750;2023-09-18T12:14:08;27.30;49.90
81202;DHT22;71068;47.662;-2.750;2023-09-18T12:16:40;27.40;48.10
81202;DHT22;71068;47.662;-2.750;2023-09-18T12:19:06;27.50;49.50
81202;DHT22;71068;47.662;-2.750;2023-09-18T12:21:33;27.50;49.90
81202;DHT22;71068;47.662;-2.750;2023-09-18T12:24:01;27.60;49.50
81202;DHT22;71068;47.662;-2.750;2023-09-18T12:26:27;27.70;48.80
81202;DHT22;71068;47.662;-2.750;2023-09-18T12:28:55;27.80;48.80
81202;DHT22;71068;47.662;-2.750;2023-09-18T12:31:20;27.70;47.80
81202;DHT22;71068;47.662;-2.750;2023-09-18T12:33:46;27.40;48.70
81202;DHT22;71068;47.662;-2.750;2023-09-18T12:36:19;27.10;49.60
81202;DHT22;71068;47.662;-2.750;2023-09-18T12:39:07;27.10;49.10
81202;DHT22;71068;47.662;-2.750;2023-09-18T12:41:36;27.40;50.40
81202;DHT22;71068;47.662;-2.750;2023-09-18T12:44:03;27.60;49.30
81202;DHT22;71068;47.662;-2.750;2023-09-18T12:46:31;27.40;47.90
81202;DHT22;71068;47.662;-2.750;2023-09-18T12:48:57;26.80;48.40
81202;DHT22;71068;47.662;-2.750;2023-09-18T12:51:30;26.80;48.60
81202;DHT22;71068;47.662;-2.750;2023-09-18T12:54:01;26.90;48.80
81202;DHT22;71068;47.662;-2.750;2023-09-18T12:56:32;27.20;49.40
81202;DHT22;71068;47.662;-2.750;2023-09-18T12:59:00;27.30;49.00
81202;DHT22;71068;47.662;-2.750;2023-09-18T13:01:26;27.50;48.20
81202;DHT22;71068;47.662;-2.750;2023-09-18T13:03:53;27.50;47.50
81202;DHT22;71068;47.662;-2.750;2023-09-18T13:06:23;27.30;47.20
81202;DHT22;71068;47.662;-2.750;2023-09-18T13:08:49;27.00;48.10
81202;DHT22;71068;47.662;-2.750;2023-09-18T13:11:18;26.80;48.60
81202;DHT22;71068;47.662;-2.750;2023-09-18T13:13:44;26.80;49.00
81202;DHT22;71068;47.662;-2.750;2023-09-18T13:16:11;26.50;49.70
81202;DHT22;71068;47.662;-2.750;2023-09-18T13:18:40;26.70;49.50
81202;DHT22;71068;47.662;-2.750;2023-09-18T13:21:13;26.60;50.00
81202;DHT22;71068;47.662;-2.750;2023-09-18T13:23:44;26.70;50.20
81202;DHT22;71068;47.662;-2.750;2023-09-18T13:26:10;26.70;49.20
81202;DHT22;71068;47.662;-2.750;2023-09-18T13:28:37;26.50;50.10
81202;DHT22;71068;47.662;-2.750;2023-09-18T13:31:06;26.30;50.50
81202;DHT22;71068;47.662;-2.750;2023-09-18T13:33:32;26.10;50.90
81202;DHT22;71068;47.662;-2.750;2023-09-18T13:36:04;26.00;51.30
81202;DHT22;71068;47.662;-2.750;2023-09-18T13:38:30;26.00;52.00
81202;DHT22;71068;47.662;-2.750;2023-09-18T13:40:56;26.10;52.40
81202;DHT22;71068;47.662;-2.750;2023-09-18T13:43:22;26.40;52.10
81202;DHT22;71068;47.662;-2.750;2023-09-18T13:45:49;26.30;52.10
81202;DHT22;71068;47.662;-2.750;2023-09-18T13:48:18;26.10;52.10
81202;DHT22;71068;47.662;-2.750;2023-09-18T13:50:46;25.90;52.90
81202;DHT22;71068;47.662;-2.750;2023-09-18T13:53:13;25.90;52.90
81202;DHT22;71068;47.662;-2.750;2023-09-18T13:55:42;26.10;53.10
81202;DHT22;71068;47.662;-2.750;2023-09-18T13:58:14;26.20;52.50
81202;DHT22;71068;47.662;-2.750;2023-09-18T14:00:40;26.20;51.80
81202;DHT22;71068;47.662;-2.750;2023-09-18T14:03:09;26.00;52.30
81202;DHT22;71068;47.662;-2.750;2023-09-18T14:05:36;26.20;52.40
81202;DHT22;71068;47.662;-2.750;2023-09-18T14:08:02;26.20;52.30
81202;DHT22;71068;47.662;-2.750;2023-09-18T14:10:30;26.40;52.40
81202;DHT22;71068;47.662;-2.750;2023-09-18T14:12:57;26.50;52.10
81202;DHT22;71068;47.662;-2.750;2023-09-18T14:15:24;26.60;51.70
81202;DHT22;71068;47.662;-2.750;2023-09-18T14:17:52;26.60;51.00
81202;DHT22;71068;47.662;-2.750;2023-09-18T14:20:19;26.70;49.20
81202;DHT22;71068;47.662;-2.750;2023-09-18T14:22:46;26.70;50.40
81202;DHT22;71068;47.662;-2.750;2023-09-18T14:25:15;26.70;49.60
81202;DHT22;71068;47.662;-2.750;2023-09-18T14:27:41;26.70;49.20
81202;DHT22;71068;47.662;-2.750;2023-09-18T14:30:08;26.70;48.90
81202;DHT22;71068;47.662;-2.750;2023-09-18T14:32:36;26.50;49.20
81202;DHT22;71068;47.662;-2.750;2023-09-18T14:35:04;26.40;49.40
81202;DHT22;71068;47.662;-2.750;2023-09-18T14:37:35;26.40;50.30
81202;DHT22;71068;47.662;-2.750;2023-09-18T14:40:02;26.50;49.40
81202;DHT22;71068;47.662;-2.750;2023-09-18T14:42:30;26.60;49.40
81202;DHT22;71068;47.662;-2.750;2023-09-18T14:45:04;26.40;48.70
81202;DHT22;71068;47.662;-2.750;2023-09-18T14:47:31;26.20;47.80
81202;DHT22;71068;47.662;-2.750;2023-09-18T14:49:57;26.00;48.20
81202;DHT22;71068;47.662;-2.750;2023-09-18T14:52:25;25.80;48.50
81202;DHT22;71068;47.662;-2.750;2023-09-18T14:54:52;25.60;49.20
81202;DHT22;71068;47.662;-2.750;2023-09-18T14:57:19;25.40;48.30
81202;DHT22;71068;47.662;-2.750;2023-09-18T14:59:47;25.40;47.80
81202;DHT22;71068;47.662;-2.750;2023-09-18T15:02:13;25.20;46.20
81202;DHT22;71068;47.662;-2.750;2023-09-18T15:04:44;25.00;44.50
81202;DHT22;71068;47.662;-2.750;2023-09-18T15:07:12;25.00;46.10
81202;DHT22;71068;47.662;-2.750;2023-09-18T15:09:39;25.10;43.40
81202;DHT22;71068;47.662;-2.750;2023-09-18T15:12:05;25.10;45.40
81202;DHT22;71068;47.662;-2.750;2023-09-18T15:14:35;25.00;45.90
81202;DHT22;71068;47.662;-2.750;2023-09-18T15:17:07;25.20;45.80
81202;DHT22;71068;47.662;-2.750;2023-09-18T15:19:35;25.10;46.50
81202;DHT22;71068;47.662;-2.750;2023-09-18T15:22:02;25.10;45.50
81202;DHT22;71068;47.662;-2.750;2023-09-18T15:24:37;25.10;46.00
81202;DHT22;71068;47.662;-2.750;2023-09-18T15:27:04;25.00;46.20
81202;DHT22;71068;47.662;-2.750;2023-09-18T15:29:32;25.00;46.20
81202;DHT22;71068;47.662;-2.750;2023-09-18T15:31:58;25.10;46.00
81202;DHT22;71068;47.662;-2.750;2023-09-18T15:34:25;25.20;46.00
81202;DHT22;71068;47.662;-2.750;2023-09-18T15:36:51;25.30;45.50
81202;DHT22;71068;47.662;-2.750;2023-09-18T15:39:17;25.30;46.30